Arpin, Wisconsin
Current Conditions -  °F | °C
As of 1:54 AM on Tuesday 21 Oct 2014 (Local Time) from KMFI Reporting Station
Overcast Overcast  
Wind Chill: 41°   Ceiling: 2000
Heat Index: 45°   Visibility: 10mi
Dew Point: 39°   Wind: 8mph
Humidity: 80%   Direction: 40°NE
Pressure: 30.08"   Gusts: NA
Location:  44.54°N, 90.04°W
Report Text: KMFI 210654Z AUTO 04007KT 10SM BKN020 OVC029 07/04 A3008 RMK AO2 SLP193 T00720039
Loading
Personal Weather Stations






























Interactive Weather Map
Tropical Storm Tracking
New forecast layout! Learn more

10-Day Weather Forecast

Advertisements
Track Severe Weather on mobile